createdAt,value
2014-07-15T00:00:00.906Z,24.3
2014-07-15T00:00:19.125Z,24.3
2014-07-15T00:00:36.720Z,24.3
2014-07-15T00:00:54.955Z,24.3
2014-07-15T00:01:13.174Z,24.3
2014-07-15T00:01:31.392Z,24.3
2014-07-15T00:01:48.988Z,24.3
2014-07-15T00:02:07.207Z,24.3
2014-07-15T00:02:25.441Z,24.3
2014-07-15T00:02:43.037Z,24.3
2014-07-15T00:03:00.631Z,24.3
2014-07-15T00:03:18.849Z,24.2
2014-07-15T00:03:36.443Z,24.3
2014-07-15T00:03:54.789Z,24.3
2014-07-15T00:04:12.383Z,24.3
2014-07-15T00:04:29.976Z,24.2
2014-07-15T00:04:48.213Z,24.2
2014-07-15T00:05:06.432Z,24.3
2014-07-15T00:05:24.650Z,24.2
2014-07-15T00:05:42.385Z,24.2
2014-07-15T00:05:59.980Z,24.2
2014-07-15T00:06:17.574Z,24.1
2014-07-15T00:06:35.168Z,24.2
2014-07-15T00:06:53.404Z,24.2
2014-07-15T00:07:10.998Z,24.2
2014-07-15T00:07:29.217Z,24.2
2014-07-15T00:07:46.186Z,24.2
2014-07-15T00:08:04.406Z,24.2
2014-07-15T00:08:22.625Z,24.2
2014-07-15T00:08:40.844Z,24.2
2014-07-15T00:08:59.080Z,24.3
2014-07-15T00:09:16.674Z,24.3
2014-07-15T00:09:34.893Z,24.3
2014-07-15T00:09:51.861Z,24.2
2014-07-15T00:10:09.457Z,24.2
2014-07-15T00:10:27.051Z,24.2
2014-07-15T00:10:45.270Z,24.2
2014-07-15T00:11:02.865Z,24.2
2014-07-15T00:11:20.459Z,24.3
2014-07-15T00:11:37.428Z,24.2
2014-07-15T00:11:55.647Z,24.2
2014-07-15T00:12:13.242Z,24.2
2014-07-15T00:12:30.852Z,24.2
2014-07-15T00:12:48.446Z,24.2
2014-07-15T00:13:06.041Z,24.2
2014-07-15T00:13:24.385Z,24.3
2014-07-15T00:13:42.619Z,24.3
2014-07-15T00:14:00.213Z,24.3
2014-07-15T00:14:17.184Z,24.3
2014-07-15T00:14:35.403Z,24.3
2014-07-15T00:14:53.637Z,24.3
2014-07-15T00:15:11.983Z,24.2
2014-07-15T00:15:30.217Z,24.2
2014-07-15T00:15:48.436Z,24.3
2014-07-15T00:16:06.655Z,24.2
2014-07-15T00:16:24.891Z,24.2
2014-07-15T00:16:43.110Z,24.3
2014-07-15T00:17:01.329Z,24.2
2014-07-15T00:17:18.924Z,24.2
2014-07-15T00:17:37.143Z,24.2
2014-07-15T00:17:54.752Z,24.2
2014-07-15T00:18:12.971Z,24.2
2014-07-15T00:18:30.567Z,24.3
2014-07-15T00:18:48.161Z,24.2
2014-07-15T00:19:06.379Z,24.2
2014-07-15T00:19:24.600Z,24.2
2014-07-15T00:19:41.569Z,24.2
2014-07-15T00:19:59.163Z,24.2
2014-07-15T00:20:16.756Z,24.2
2014-07-15T00:20:34.993Z,24.2
2014-07-15T00:20:53.212Z,24.1
2014-07-15T00:21:10.180Z,24.1
2014-07-15T00:21:27.901Z,24.2
2014-07-15T00:21:44.885Z,24.2
2014-07-15T00:22:01.839Z,24.2
2014-07-15T00:22:20.417Z,24.2
2014-07-15T00:22:38.012Z,24.2
2014-07-15T00:22:55.606Z,24.1
2014-07-15T00:23:13.825Z,24.1
2014-07-15T00:23:32.044Z,24.1
2014-07-15T00:23:50.280Z,24.1
2014-07-15T00:24:08.499Z,24.1
2014-07-15T00:24:25.468Z,24.1
2014-07-15T00:24:43.063Z,24.1
2014-07-15T00:25:01.282Z,24.1
2014-07-15T00:25:18.376Z,24.1
2014-07-15T00:25:35.360Z,24.1
2014-07-15T00:25:53.581Z,24.1
2014-07-15T00:26:10.550Z,24.1
2014-07-15T00:26:28.909Z,24.1
2014-07-15T00:26:45.880Z,24.1
2014-07-15T00:27:03.614Z,24.1
2014-07-15T00:27:20.708Z,24.1
2014-07-15T00:27:38.942Z,24.1
2014-07-15T00:27:56.538Z,24
2014-07-15T00:28:14.272Z,23.9
2014-07-15T00:28:32.491Z,23.9
2014-07-15T00:28:50.712Z,24
2014-07-15T00:29:08.446Z,24
2014-07-15T00:29:26.665Z,24
2014-07-15T00:29:44.259Z,24
2014-07-15T00:30:02.480Z,24
2014-07-15T00:30:19.433Z,23.9
2014-07-15T00:30:36.401Z,24
2014-07-15T00:30:53.997Z,24
2014-07-15T00:31:10.966Z,24
2014-07-15T00:31:29.185Z,24
2014-07-15T00:31:47.403Z,24
2014-07-15T00:32:05.624Z,24
2014-07-15T00:32:23.843Z,24
2014-07-15T00:32:42.062Z,24
2014-07-15T00:33:00.298Z,24
2014-07-15T00:33:18.517Z,24
2014-07-15T00:33:36.111Z,24
2014-07-15T00:33:53.704Z,24
2014-07-15T00:34:11.300Z,24
2014-07-15T00:34:28.253Z,24
2014-07-15T00:34:46.472Z,24
2014-07-15T00:35:04.068Z,24
2014-07-15T00:35:22.302Z,24
2014-07-15T00:35:39.896Z,24
2014-07-15T00:35:58.115Z,24
2014-07-15T00:36:15.710Z,24
2014-07-15T00:36:33.929Z,24
2014-07-15T00:36:51.523Z,24
2014-07-15T00:37:09.744Z,24
2014-07-15T00:37:27.337Z,24
2014-07-15T00:37:44.306Z,24
2014-07-15T00:38:01.900Z,24
2014-07-15T00:38:19.496Z,24
2014-07-15T00:38:37.089Z,24
2014-07-15T00:38:55.449Z,24
2014-07-15T00:39:13.169Z,24
2014-07-15T00:39:30.763Z,24
2014-07-15T00:39:48.373Z,24
2014-07-15T00:40:05.966Z,23.9
2014-07-15T00:40:23.562Z,23.9
2014-07-15T00:40:41.781Z,23.9
2014-07-15T00:41:00.000Z,24
2014-07-15T00:41:17.595Z,24
2014-07-15T00:41:34.564Z,24
2014-07-15T00:41:52.783Z,24
2014-07-15T00:42:11.142Z,23.9
2014-07-15T00:42:29.363Z,23.9
2014-07-15T00:42:47.722Z,24
2014-07-15T00:43:05.941Z,24
2014-07-15T00:43:23.537Z,24
2014-07-15T00:43:41.756Z,24
2014-07-15T00:43:59.349Z,24
2014-07-15T00:44:16.943Z,24
2014-07-15T00:44:35.164Z,24
2014-07-15T00:44:53.383Z,23.9
2014-07-15T00:45:10.976Z,23.9
2014-07-15T00:45:29.338Z,23.9
2014-07-15T00:45:47.556Z,24
2014-07-15T00:46:05.775Z,24
2014-07-15T00:46:23.510Z,23.9
2014-07-15T00:46:41.105Z,23.9
2014-07-15T00:46:58.699Z,23.9
2014-07-15T00:47:16.418Z,23.9
2014-07-15T00:47:34.029Z,23.9
2014-07-15T00:47:51.623Z,23.9
2014-07-15T00:48:09.217Z,23.9
2014-07-15T00:48:27.560Z,23.9
2014-07-15T00:48:44.531Z,23.9
2014-07-15T00:49:01.500Z,23.9
2014-07-15T00:49:19.094Z,23.9
2014-07-15T00:49:37.330Z,23.9
2014-07-15T00:49:55.549Z,23.9
2014-07-15T00:50:13.768Z,23.8
2014-07-15T00:50:31.361Z,23.7
2014-07-15T00:50:49.707Z,23.8
2014-07-15T00:51:06.676Z,23.8
2014-07-15T00:51:24.285Z,23.8
2014-07-15T00:51:42.506Z,23.8
2014-07-15T00:52:00.100Z,23.8
2014-07-15T00:52:17.068Z,23.8
2014-07-15T00:52:34.662Z,23.8
2014-07-15T00:52:52.883Z,23.8
2014-07-15T00:53:11.117Z,23.8
2014-07-15T00:53:28.086Z,23.8
2014-07-15T00:53:45.057Z,23.8
2014-07-15T00:54:02.651Z,23.8
2014-07-15T00:54:19.619Z,23.8
2014-07-15T00:54:37.854Z,23.8
2014-07-15T00:54:55.434Z,23.8
2014-07-15T00:55:13.653Z,23.8
2014-07-15T00:55:31.871Z,23.8
2014-07-15T00:55:49.483Z,23.8
2014-07-15T00:56:07.701Z,23.8
2014-07-15T00:56:25.920Z,23.8
2014-07-15T00:56:44.155Z,23.8
2014-07-15T00:57:01.750Z,23.8
2014-07-15T00:57:18.719Z,23.8
2014-07-15T00:57:36.938Z,23.9
2014-07-15T00:57:55.159Z,23.9
2014-07-15T00:58:12.752Z,23.9
2014-07-15T00:58:30.987Z,23.9
2014-07-15T00:58:49.330Z,23.9
2014-07-15T00:59:07.567Z,23.9
2014-07-15T00:59:25.161Z,24
2014-07-15T00:59:42.114Z,24
2014-07-15T01:00:00.350Z,24
2014-07-15T01:00:18.569Z,24
2014-07-15T01:00:36.788Z,24
2014-07-15T01:00:55.022Z,24
2014-07-15T01:01:12.618Z,24
2014-07-15T01:01:30.196Z,24
2014-07-15T01:01:47.790Z,24
2014-07-15T01:02:06.026Z,24
2014-07-15T01:02:23.620Z,24
2014-07-15T01:02:41.213Z,24
2014-07-15T01:02:59.432Z,24
2014-07-15T01:03:17.653Z,24
2014-07-15T01:03:35.872Z,23.9
2014-07-15T01:03:54.106Z,23.9
2014-07-15T01:04:11.702Z,23.9
2014-07-15T01:04:29.936Z,23.9
2014-07-15T01:04:47.530Z,23.9
2014-07-15T01:05:05.124Z,23.9
2014-07-15T01:05:22.719Z,23.9
2014-07-15T01:05:41.079Z,23.9
2014-07-15T01:05:59.298Z,23.9
2014-07-15T01:06:16.893Z,23.9
2014-07-15T01:06:34.487Z,23.9
2014-07-15T01:06:52.721Z,23.9
2014-07-15T01:07:10.315Z,23.9
2014-07-15T01:07:28.536Z,23.9
2014-07-15T01:07:44.880Z,23.9
2014-07-15T01:08:03.098Z,23.9
2014-07-15T01:08:20.694Z,23.9
2014-07-15T01:08:38.304Z,23.8
2014-07-15T01:08:56.522Z,23.9
2014-07-15T01:09:14.116Z,23.8
2014-07-15T01:09:31.837Z,23.8
2014-07-15T01:09:48.806Z,23.9
2014-07-15T01:10:06.415Z,23.9
2014-07-15T01:10:24.011Z,23.9
2014-07-15T01:10:41.604Z,23.9
2014-07-15T01:10:58.573Z,23.8
2014-07-15T01:11:16.167Z,23.9
2014-07-15T01:11:33.764Z,23.8
2014-07-15T01:11:51.982Z,23.8
2014-07-15T01:12:09.576Z,23.9
2014-07-15T01:12:27.795Z,23.9
2014-07-15T01:12:44.765Z,23.8
2014-07-15T01:13:02.983Z,23.9
2014-07-15T01:13:21.202Z,23.9
2014-07-15T01:13:39.439Z,23.8
2014-07-15T01:13:56.407Z,23.8
2014-07-15T01:14:14.001Z,23.9
2014-07-15T01:14:32.220Z,23.9
2014-07-15T01:14:49.191Z,23.9
2014-07-15T01:15:06.784Z,23.8
2014-07-15T01:15:25.003Z,23.8
2014-07-15T01:15:42.597Z,23.8
2014-07-15T01:16:00.818Z,23.8
2014-07-15T01:16:19.036Z,23.8
2014-07-15T01:16:37.271Z,23.8
2014-07-15T01:16:55.507Z,23.8
2014-07-15T01:17:13.226Z,23.8
2014-07-15T01:17:30.835Z,23.8
2014-07-15T01:17:48.429Z,23.8
2014-07-15T01:18:06.650Z,23.9
2014-07-15T01:18:24.868Z,23.9
2014-07-15T01:18:42.462Z,23.9
2014-07-15T01:19:00.684Z,23.9
2014-07-15T01:19:18.278Z,23.9
2014-07-15T01:19:36.637Z,23.9
2014-07-15T01:19:54.856Z,23.9
2014-07-15T01:20:13.077Z,23.9
2014-07-15T01:20:31.311Z,23.9
2014-07-15T01:20:49.530Z,23.9
2014-07-15T01:21:07.140Z,23.9
2014-07-15T01:21:25.359Z,23.9
2014-07-15T01:21:43.593Z,23.9
2014-07-15T01:22:01.812Z,23.9
2014-07-15T01:22:20.034Z,23.9
2014-07-15T01:22:38.268Z,23.9
2014-07-15T01:22:55.846Z,23.9
2014-07-15T01:23:12.817Z,23.9
2014-07-15T01:23:30.411Z,23.9
2014-07-15T01:23:48.629Z,23.9
2014-07-15T01:24:06.864Z,23.9
2014-07-15T01:24:25.084Z,23.9
2014-07-15T01:24:42.677Z,23.9
2014-07-15T01:24:59.646Z,23.9
2014-07-15T01:25:17.868Z,23.9
2014-07-15T01:25:35.462Z,23.9
2014-07-15T01:25:53.055Z,23.9
2014-07-15T01:26:10.649Z,23.9
2014-07-15T01:26:28.893Z,23.9
2014-07-15T01:26:47.112Z,23.9
2014-07-15T01:27:05.331Z,24
2014-07-15T01:27:23.597Z,24
2014-07-15T01:27:41.831Z,24
2014-07-15T01:27:59.425Z,23.9
2014-07-15T01:28:16.519Z,23.9
2014-07-15T01:28:34.780Z,23.9
2014-07-15T01:28:52.374Z,23.9
2014-07-15T01:29:09.968Z,23.9
2014-07-15T01:29:28.232Z,23.9
2014-07-15T01:29:45.841Z,23.9
2014-07-15T01:30:02.185Z,23.9
2014-07-15T01:30:20.403Z,23.9
2014-07-15T01:30:38.047Z,23.9
2014-07-15T01:30:56.282Z,23.9
2014-07-15T01:31:13.875Z,23.9
2014-07-15T01:31:31.469Z,23.9
2014-07-15T01:31:48.466Z,23.8
2014-07-15T01:32:06.685Z,23.8
2014-07-15T01:32:24.903Z,23.8
2014-07-15T01:32:43.157Z,23.8
2014-07-15T01:33:01.375Z,23.8
2014-07-15T01:33:18.969Z,23.9
2014-07-15T01:33:36.079Z,23.8
2014-07-15T01:33:54.312Z,23.8
2014-07-15T01:34:11.906Z,23.8
2014-07-15T01:34:29.500Z,23.8
2014-07-15T01:34:46.627Z,23.8
2014-07-15T01:35:04.221Z,23.8
2014-07-15T01:35:21.940Z,23.8
2014-07-15T01:35:38.908Z,23.9
2014-07-15T01:35:57.144Z,23.8
2014-07-15T01:36:15.379Z,23.8
2014-07-15T01:36:32.972Z,23.8
2014-07-15T01:36:50.576Z,23.8
2014-07-15T01:37:08.170Z,23.8
2014-07-15T01:37:26.389Z,23.8
2014-07-15T01:37:44.607Z,23.8
2014-07-15T01:38:01.583Z,23.8
2014-07-15T01:38:19.802Z,23.8
2014-07-15T01:38:37.396Z,23.8
2014-07-15T01:38:55.621Z,23.8
2014-07-15T01:39:13.840Z,23.8
2014-07-15T01:39:31.434Z,23.8
2014-07-15T01:39:49.653Z,23.8
2014-07-15T01:40:07.270Z,23.8
2014-07-15T01:40:25.489Z,23.8
2014-07-15T01:40:43.707Z,23.8
2014-07-15T01:41:01.307Z,23.8
2014-07-15T01:41:19.526Z,23.8
2014-07-15T01:41:37.120Z,23.8
2014-07-15T01:41:55.338Z,23.8
2014-07-15T01:42:12.312Z,23.8
2014-07-15T01:42:30.531Z,23.8
2014-07-15T01:42:48.125Z,23.8
2014-07-15T01:43:06.347Z,23.8
2014-07-15T01:43:24.582Z,23.8
2014-07-15T01:43:42.816Z,23.8
2014-07-15T01:44:01.176Z,23.8
2014-07-15T01:44:18.758Z,23.8
2014-07-15T01:44:37.117Z,23.8
2014-07-15T01:44:54.711Z,23.8
2014-07-15T01:45:12.934Z,23.8
2014-07-15T01:45:30.543Z,23.8
2014-07-15T01:45:48.762Z,23.8
2014-07-15T01:46:06.355Z,23.8
2014-07-15T01:46:24.593Z,23.8
2014-07-15T01:46:40.921Z,23.8
2014-07-15T01:46:59.140Z,23.8
2014-07-15T01:47:16.737Z,23.8
2014-07-15T01:47:34.972Z,23.8
2014-07-15T01:47:53.191Z,23.8
2014-07-15T01:48:11.409Z,23.8
2014-07-15T01:48:28.381Z,23.8
2014-07-15T01:48:45.975Z,23.8
2014-07-15T01:49:03.569Z,23.8
2014-07-15T01:49:21.164Z,23.8
2014-07-15T01:49:38.774Z,23.8
2014-07-15T01:49:56.352Z,23.8
2014-07-15T01:50:14.571Z,23.8
2014-07-15T01:50:32.167Z,23.8
2014-07-15T01:50:50.386Z,23.7
2014-07-15T01:51:07.980Z,23.8
2014-07-15T01:51:26.217Z,23.8
2014-07-15T01:51:44.436Z,23.7
2014-07-15T01:52:02.655Z,23.7
2014-07-15T01:52:20.248Z,23.7
2014-07-15T01:52:37.860Z,23.7
2014-07-15T01:52:56.079Z,23.7
2014-07-15T01:53:14.297Z,23.7
2014-07-15T01:53:32.535Z,23.7
2014-07-15T01:53:50.753Z,23.7
2014-07-15T01:54:07.863Z,23.6
2014-07-15T01:54:25.441Z,23.6
2014-07-15T01:54:43.037Z,23.7
2014-07-15T01:55:01.271Z,23.7
2014-07-15T01:55:19.490Z,23.7
2014-07-15T01:55:37.087Z,23.7
2014-07-15T01:55:54.040Z,23.7
2014-07-15T01:56:11.774Z,23.7
2014-07-15T01:56:29.993Z,23.7
2014-07-15T01:56:48.229Z,23.7
2014-07-15T01:57:05.823Z,23.7
2014-07-15T01:57:24.182Z,23.7
2014-07-15T01:57:42.403Z,23.7
2014-07-15T01:57:59.997Z,23.6
2014-07-15T01:58:17.591Z,23.6
2014-07-15T01:58:35.809Z,23.6
2014-07-15T01:58:54.030Z,23.7
2014-07-15T01:59:11.624Z,23.7
2014-07-15T01:59:29.858Z,23.7
2014-07-15T01:59:48.079Z,23.7
2014-07-15T02:00:05.673Z,23.7
2014-07-15T02:00:22.001Z,23.7
2014-07-15T02:00:40.235Z,23.7
2014-07-15T02:00:57.206Z,23.7
2014-07-15T02:01:14.925Z,23.7
2014-07-15T02:01:33.143Z,23.7
2014-07-15T02:01:50.737Z,23.7
2014-07-15T02:02:08.333Z,23.7
2014-07-15T02:02:25.302Z,23.7
2014-07-15T02:02:42.895Z,23.7
2014-07-15T02:03:01.115Z,23.7
2014-07-15T02:03:18.709Z,23.7
2014-07-15T02:03:36.303Z,23.7
2014-07-15T02:03:54.553Z,23.7
2014-07-15T02:04:12.773Z,23.7
2014-07-15T02:04:30.992Z,23.7
2014-07-15T02:04:49.227Z,23.7
2014-07-15T02:05:06.822Z,23.7
2014-07-15T02:05:25.041Z,23.7
2014-07-15T02:05:42.635Z,23.7
2014-07-15T02:06:00.229Z,23.7
2014-07-15T02:06:17.199Z,23.7
2014-07-15T02:06:34.934Z,23.7
2014-07-15T02:06:52.527Z,23.7
2014-07-15T02:07:09.498Z,23.7
2014-07-15T02:07:27.717Z,23.7
2014-07-15T02:07:45.311Z,23.6
2014-07-15T02:08:03.545Z,23.6
2014-07-15T02:08:21.766Z,23.7
2014-07-15T02:08:39.985Z,23.7
2014-07-15T02:08:58.203Z,23.7
2014-07-15T02:09:15.816Z,23.7
2014-07-15T02:09:33.409Z,23.8
2014-07-15T02:09:51.628Z,23.7
2014-07-15T02:10:09.863Z,23.8
2014-07-15T02:10:28.083Z,23.8
2014-07-15T02:10:45.677Z,23.8
2014-07-15T02:11:03.271Z,23.8
2014-07-15T02:11:20.867Z,23.8
2014-07-15T02:11:39.085Z,23.8
2014-07-15T02:11:57.320Z,23.8
2014-07-15T02:12:14.913Z,23.8
2014-07-15T02:12:33.133Z,23.8
2014-07-15T02:12:51.352Z,23.8
2014-07-15T02:13:09.586Z,23.8
2014-07-15T02:13:27.808Z,23.7
2014-07-15T02:13:46.027Z,23.7
2014-07-15T02:14:04.246Z,23.7
2014-07-15T02:14:21.355Z,23.7
2014-07-15T02:14:38.326Z,23.7
2014-07-15T02:14:56.544Z,23.7
2014-07-15T02:15:14.763Z,23.6
2014-07-15T02:15:31.734Z,23.6
2014-07-15T02:15:49.328Z,23.6
2014-07-15T02:16:07.562Z,23.6
2014-07-15T02:16:25.156Z,23.6
2014-07-15T02:16:43.517Z,23.6
2014-07-15T02:17:01.111Z,23.6
2014-07-15T02:17:18.705Z,23.7
2014-07-15T02:17:37.066Z,23.7
2014-07-15T02:17:54.660Z,23.7
2014-07-15T02:18:12.254Z,23.7
2014-07-15T02:18:29.238Z,23.7
2014-07-15T02:18:46.834Z,23.7
2014-07-15T02:19:04.552Z,23.7
2014-07-15T02:19:22.771Z,23.7
2014-07-15T02:19:40.381Z,23.7
2014-07-15T02:19:57.350Z,23.7
2014-07-15T02:20:15.069Z,23.7
2014-07-15T02:20:33.366Z,23.7
2014-07-15T02:20:50.885Z,23.7
2014-07-15T02:21:08.478Z,23.7
2014-07-15T02:21:26.072Z,23.7
2014-07-15T02:21:43.681Z,23.7
2014-07-15T02:22:01.902Z,23.7
2014-07-15T02:22:20.121Z,23.7
2014-07-15T02:22:37.715Z,23.7
2014-07-15T02:22:55.310Z,23.6
2014-07-15T02:23:13.545Z,23.6
2014-07-15T02:23:30.498Z,23.6
2014-07-15T02:23:48.092Z,23.6
2014-07-15T02:24:05.686Z,23.6
2014-07-15T02:24:23.921Z,23.6
2014-07-15T02:24:41.515Z,23.6
2014-07-15T02:24:59.736Z,23.6
2014-07-15T02:25:17.971Z,23.6
2014-07-15T02:25:35.064Z,23.5
2014-07-15T02:25:53.299Z,23.6
2014-07-15T02:26:10.269Z,23.6
2014-07-15T02:26:27.862Z,23.6
2014-07-15T02:26:46.222Z,23.6
2014-07-15T02:27:04.443Z,23.6
2014-07-15T02:27:22.037Z,23.6
2014-07-15T02:27:40.256Z,23.6
2014-07-15T02:27:57.850Z,23.6
2014-07-15T02:28:16.070Z,23.6
2014-07-15T02:28:33.680Z,23.6
2014-07-15T02:28:51.899Z,23.6
2014-07-15T02:29:09.494Z,23.6
2014-07-15T02:29:27.713Z,23.6
2014-07-15T02:29:45.307Z,23.6
2014-07-15T02:30:03.541Z,23.6
2014-07-15T02:30:21.761Z,23.6
2014-07-15T02:30:40.120Z,23.6
2014-07-15T02:30:58.339Z,23.6
2014-07-15T02:31:15.311Z,23.6
2014-07-15T02:31:32.905Z,23.6
2014-07-15T02:31:51.123Z,23.6
2014-07-15T02:32:09.342Z,23.6
2014-07-15T02:32:27.563Z,23.6
2014-07-15T02:32:45.157Z,23.6
2014-07-15T02:33:02.750Z,23.6
2014-07-15T02:33:20.971Z,23.6
2014-07-15T02:33:39.190Z,23.6
2014-07-15T02:33:56.784Z,23.6
2014-07-15T02:34:13.752Z,23.6
2014-07-15T02:34:31.348Z,23.6
2014-07-15T02:34:49.582Z,23.6
2014-07-15T02:35:07.176Z,23.5
2014-07-15T02:35:24.772Z,23.6
2014-07-15T02:35:42.991Z,23.6
2014-07-15T02:35:59.959Z,23.6
2014-07-15T02:36:18.194Z,23.6
2014-07-15T02:36:35.790Z,23.6
2014-07-15T02:36:54.008Z,23.6
2014-07-15T02:37:11.602Z,23.6
2014-07-15T02:37:29.963Z,23.6
2014-07-15T02:37:47.557Z,23.6
2014-07-15T02:38:05.776Z,23.6
2014-07-15T02:38:24.010Z,23.5
2014-07-15T02:38:42.231Z,23.5
2014-07-15T02:39:00.450Z,23.5
2014-07-15T02:39:18.669Z,23.6
2014-07-15T02:39:36.264Z,23.6
2014-07-15T02:39:54.499Z,23.6
2014-07-15T02:40:12.092Z,23.5
2014-07-15T02:40:29.061Z,23.5
2014-07-15T02:40:47.282Z,23.5
2014-07-15T02:41:04.876Z,23.5
2014-07-15T02:41:22.594Z,23.5
2014-07-15T02:41:40.815Z,23.5
2014-07-15T02:41:58.440Z,23.5
2014-07-15T02:42:16.643Z,23.5
2014-07-15T02:42:35.003Z,23.5
2014-07-15T02:42:53.223Z,23.5
2014-07-15T02:43:11.442Z,23.5
2014-07-15T02:43:29.661Z,23.5
2014-07-15T02:43:47.882Z,23.5
2014-07-15T02:44:06.116Z,23.5
2014-07-15T02:44:23.085Z,23.5
2014-07-15T02:44:40.679Z,23.5
2014-07-15T02:44:58.274Z,23.5
2014-07-15T02:45:16.493Z,23.5
2014-07-15T02:45:34.087Z,23.5
2014-07-15T02:45:51.058Z,23.5
2014-07-15T02:46:08.651Z,23.5
2014-07-15T02:46:26.870Z,23.5
2014-07-15T02:46:45.089Z,23.5
2014-07-15T02:47:02.185Z,23.5
2014-07-15T02:47:19.794Z,23.5
2014-07-15T02:47:38.013Z,23.5
2014-07-15T02:47:55.608Z,23.5
2014-07-15T02:48:13.843Z,23.5
2014-07-15T02:48:30.187Z,23.5
2014-07-15T02:48:47.796Z,23.5
2014-07-15T02:49:05.407Z,23.5
2014-07-15T02:49:23.767Z,23.5
2014-07-15T02:49:40.735Z,23.5
2014-07-15T02:49:58.329Z,23.5
2014-07-15T02:50:15.925Z,23.5
2014-07-15T02:50:32.894Z,23.5
2014-07-15T02:50:50.487Z,23.5
2014-07-15T02:51:08.099Z,23.5
2014-07-15T02:51:26.318Z,23.5
2014-07-15T02:51:44.552Z,23.5
2014-07-15T02:52:02.146Z,23.5
2014-07-15T02:52:19.741Z,23.5
2014-07-15T02:52:37.960Z,23.5
2014-07-15T02:52:56.195Z,23.5
2014-07-15T02:53:13.165Z,23.5
2014-07-15T02:53:31.400Z,23.5
2014-07-15T02:53:48.368Z,23.5
2014-07-15T02:54:06.587Z,23.6
2014-07-15T02:54:24.183Z,23.6
2014-07-15T02:54:42.417Z,23.6
2014-07-15T02:55:00.011Z,23.6
2014-07-15T02:55:17.607Z,23.6
2014-07-15T02:55:35.826Z,23.7
2014-07-15T02:55:53.419Z,23.7
2014-07-15T02:56:11.654Z,23.7
2014-07-15T02:56:29.874Z,23.7
2014-07-15T02:56:48.109Z,23.7
2014-07-15T02:57:06.328Z,23.7
2014-07-15T02:57:24.564Z,23.7
2014-07-15T02:57:42.783Z,23.7
2014-07-15T02:58:01.017Z,23.7
2014-07-15T02:58:19.251Z,23.6
2014-07-15T02:58:36.207Z,23.6
2014-07-15T02:58:54.441Z,23.6
2014-07-15T02:59:11.394Z,23.6
2014-07-15T02:59:29.005Z,23.6
2014-07-15T02:59:46.615Z,23.6
2014-07-15T03:00:04.209Z,23.6
2014-07-15T03:00:21.177Z,23.6
2014-07-15T03:00:38.149Z,23.6
2014-07-15T03:00:55.758Z,23.5
2014-07-15T03:01:13.352Z,23.6
2014-07-15T03:01:31.571Z,23.5
2014-07-15T03:01:49.807Z,23.6
2014-07-15T03:02:08.026Z,23.6
2014-07-15T03:02:25.620Z,23.6
2014-07-15T03:02:43.855Z,23.5
2014-07-15T03:03:01.449Z,23.5
2014-07-15T03:03:19.683Z,23.5
2014-07-15T03:03:37.277Z,23.5
2014-07-15T03:03:55.498Z,23.5
2014-07-15T03:04:13.107Z,23.5
2014-07-15T03:04:31.326Z,23.5
2014-07-15T03:04:48.922Z,23.5
2014-07-15T03:05:05.890Z,23.5
2014-07-15T03:05:24.125Z,23.5
2014-07-15T03:05:41.719Z,23.5
2014-07-15T03:05:59.940Z,23.6
2014-07-15T03:06:18.175Z,23.5
2014-07-15T03:06:35.768Z,23.5
2014-07-15T03:06:54.005Z,23.5
2014-07-15T03:07:11.614Z,23.5
2014-07-15T03:07:29.833Z,23.5
2014-07-15T03:07:47.427Z,23.5
2014-07-15T03:08:05.038Z,23.5
2014-07-15T03:08:22.632Z,23.5
2014-07-15T03:08:40.866Z,23.5
2014-07-15T03:08:58.462Z,23.5
2014-07-15T03:09:16.681Z,23.5
2014-07-15T03:09:34.274Z,23.5
2014-07-15T03:09:52.493Z,23.5
2014-07-15T03:10:10.729Z,23.5
2014-07-15T03:10:28.947Z,23.5
2014-07-15T03:10:47.322Z,23.5
2014-07-15T03:11:05.685Z,23.5
2014-07-15T03:11:23.278Z,23.5
2014-07-15T03:11:40.872Z,23.5
2014-07-15T03:11:59.091Z,23.5
2014-07-15T03:12:17.326Z,23.5
2014-07-15T03:12:34.920Z,23.5
2014-07-15T03:12:52.514Z,23.5
2014-07-15T03:13:10.750Z,23.5
2014-07-15T03:13:28.969Z,23.5
2014-07-15T03:13:47.328Z,23.5
2014-07-15T03:14:04.922Z,23.5
2014-07-15T03:14:22.518Z,23.6
2014-07-15T03:14:40.737Z,23.6
2014-07-15T03:14:58.971Z,23.6
2014-07-15T03:15:16.568Z,23.6
2014-07-15T03:15:34.177Z,23.6
2014-07-15T03:15:51.771Z,23.5
2014-07-15T03:16:09.365Z,23.5
2014-07-15T03:16:27.601Z,23.5
2014-07-15T03:16:45.820Z,23.5
2014-07-15T03:17:03.429Z,23.5
2014-07-15T03:17:21.025Z,23.5
2014-07-15T03:17:39.244Z,23.5
2014-07-15T03:17:57.478Z,23.5
2014-07-15T03:18:15.697Z,23.5
2014-07-15T03:18:33.432Z,23.5
2014-07-15T03:18:51.041Z,23.5
2014-07-15T03:19:09.276Z,23.5
2014-07-15T03:19:27.497Z,23.5
2014-07-15T03:19:45.090Z,23.5
2014-07-15T03:20:02.684Z,23.5
2014-07-15T03:20:19.668Z,23.5
2014-07-15T03:20:37.890Z,23.5
2014-07-15T03:20:56.125Z,23.5
2014-07-15T03:21:14.343Z,23.5
2014-07-15T03:21:32.080Z,23.6
2014-07-15T03:21:49.673Z,23.5
2014-07-15T03:22:07.908Z,23.5
2014-07-15T03:22:25.502Z,23.5
2014-07-15T03:22:43.112Z,23.5
2014-07-15T03:23:00.706Z,23.5
2014-07-15T03:23:18.299Z,23.5
2014-07-15T03:23:36.520Z,23.5
2014-07-15T03:23:54.755Z,23.5
2014-07-15T03:24:11.723Z,23.5
2014-07-15T03:24:29.333Z,23.5
2014-07-15T03:24:47.553Z,23.5
2014-07-15T03:25:05.772Z,23.5
2014-07-15T03:25:23.366Z,23.5
2014-07-15T03:25:40.477Z,23.5
2014-07-15T03:25:58.696Z,23.5
2014-07-15T03:26:16.305Z,23.5
2014-07-15T03:26:33.899Z,23.5
2014-07-15T03:26:51.496Z,23.5
2014-07-15T03:27:09.715Z,23.5
2014-07-15T03:27:28.074Z,23.5
2014-07-15T03:27:46.309Z,23.5
2014-07-15T03:28:04.528Z,23.6
2014-07-15T03:28:22.122Z,23.6
2014-07-15T03:28:39.716Z,23.6
2014-07-15T03:28:56.827Z,23.6
2014-07-15T03:29:15.046Z,23.6
2014-07-15T03:29:32.640Z,23.6
2014-07-15T03:29:50.877Z,23.6
2014-07-15T03:30:09.096Z,23.6
2014-07-15T03:30:27.330Z,23.6
2014-07-15T03:30:45.549Z,23.6
2014-07-15T03:31:03.784Z,23.6
2014-07-15T03:31:22.003Z,23.6
2014-07-15T03:31:40.237Z,23.6
2014-07-15T03:31:57.833Z,23.6
2014-07-15T03:32:14.177Z,23.6
2014-07-15T03:32:32.411Z,23.6
2014-07-15T03:32:50.007Z,23.6
2014-07-15T03:33:06.976Z,23.6
2014-07-15T03:33:24.069Z,23.6
2014-07-15T03:33:41.054Z,23.7
2014-07-15T03:33:58.650Z,23.6
2014-07-15T03:34:16.259Z,23.7
2014-07-15T03:34:33.853Z,23.7
2014-07-15T03:34:51.446Z,23.7
2014-07-15T03:35:09.683Z,23.7
2014-07-15T03:35:27.902Z,23.7
2014-07-15T03:35:46.136Z,23.7
2014-07-15T03:36:03.732Z,23.7
2014-07-15T03:36:21.966Z,23.7
2014-07-15T03:36:38.935Z,23.7
2014-07-15T03:36:57.294Z,23.7
2014-07-15T03:37:14.281Z,23.7
2014-07-15T03:37:32.515Z,23.7
2014-07-15T03:37:50.734Z,23.7
2014-07-15T03:38:07.720Z,23.6
2014-07-15T03:38:25.314Z,23.6
2014-07-15T03:38:43.548Z,23.6
2014-07-15T03:39:01.783Z,23.6
2014-07-15T03:39:19.378Z,23.6
2014-07-15T03:39:36.972Z,23.6
2014-07-15T03:39:55.206Z,23.6
2014-07-15T03:40:13.569Z,23.6
2014-07-15T03:40:31.178Z,23.6
2014-07-15T03:40:48.788Z,23.6
2014-07-15T03:41:06.381Z,23.5
2014-07-15T03:41:23.368Z,23.5
2014-07-15T03:41:41.586Z,23.5
2014-07-15T03:41:59.321Z,23.5
2014-07-15T03:42:16.290Z,23.5
2014-07-15T03:42:34.526Z,23.5
2014-07-15T03:42:51.495Z,23.4
2014-07-15T03:43:09.854Z,23.4
2014-07-15T03:43:28.089Z,23.4
2014-07-15T03:43:46.324Z,23.4
2014-07-15T03:44:03.918Z,23.4
2014-07-15T03:44:20.886Z,23.4
2014-07-15T03:44:39.123Z,23.4
2014-07-15T03:44:57.357Z,23.4
2014-07-15T03:45:15.576Z,23.4
2014-07-15T03:45:33.187Z,23.4
2014-07-15T03:45:50.781Z,23.4
2014-07-15T03:46:09.015Z,23.4
2014-07-15T03:46:25.984Z,23.4
2014-07-15T03:46:44.205Z,23.4
2014-07-15T03:47:02.439Z,23.5
2014-07-15T03:47:20.674Z,23.5
2014-07-15T03:47:37.644Z,23.5
2014-07-15T03:47:55.863Z,23.5
2014-07-15T03:48:12.847Z,23.5
2014-07-15T03:48:30.441Z,23.5
2014-07-15T03:48:48.663Z,23.5
2014-07-15T03:49:06.897Z,23.6
2014-07-15T03:49:24.632Z,23.6
2014-07-15T03:49:42.226Z,23.6
2014-07-15T03:49:59.836Z,23.6
2014-07-15T03:50:17.430Z,23.6
2014-07-15T03:50:35.664Z,23.6
2014-07-15T03:50:53.885Z,23.6
2014-07-15T03:51:10.869Z,23.6
2014-07-15T03:51:28.463Z,23.7
2014-07-15T03:51:46.074Z,23.7
2014-07-15T03:52:03.668Z,23.7
2014-07-15T03:52:21.262Z,23.6
2014-07-15T03:52:38.871Z,23.7
2014-07-15T03:52:57.107Z,23.7
2014-07-15T03:53:15.326Z,23.6
2014-07-15T03:53:32.311Z,23.6
2014-07-15T03:53:50.547Z,23.6
2014-07-15T03:54:08.906Z,23.6
2014-07-15T03:54:26.500Z,23.6
2014-07-15T03:54:44.094Z,23.6
2014-07-15T03:55:02.456Z,23.6
2014-07-15T03:55:20.066Z,23.6
2014-07-15T03:55:37.659Z,23.6
2014-07-15T03:55:54.630Z,23.6
2014-07-15T03:56:12.864Z,23.6
2014-07-15T03:56:31.099Z,23.6
2014-07-15T03:56:48.068Z,23.6
2014-07-15T03:57:06.288Z,23.6
2014-07-15T03:57:23.898Z,23.6
2014-07-15T03:57:42.132Z,23.6
2014-07-15T03:58:00.353Z,23.6
2014-07-15T03:58:17.947Z,23.7
2014-07-15T03:58:36.181Z,23.7